createdAt,value
2019-02-25T00:01:00.764Z,25.62
2019-02-25T00:06:07.492Z,32.20
2019-02-25T00:11:19.499Z,26.85
2019-02-25T00:16:25.111Z,28.67
2019-02-25T00:21:30.507Z,30.73
2019-02-25T00:26:36.408Z,31.73
2019-02-25T00:31:41.494Z,31.63
2019-02-25T00:36:46.734Z,30.27
2019-02-25T00:41:51.764Z,29.33
2019-02-25T00:46:56.924Z,31.42
2019-02-25T00:52:01.959Z,33.53
2019-02-25T00:57:08.969Z,33.25
2019-02-25T01:02:13.722Z,26.57
2019-02-25T01:07:18.797Z,25.20
2019-02-25T01:12:24.960Z,25.25
2019-02-25T01:17:30.501Z,26.25
2019-02-25T01:22:39.324Z,31.30
2019-02-25T01:27:44.432Z,32.33
2019-02-25T01:32:49.459Z,33.13
2019-02-25T01:37:54.536Z,34.00
2019-02-25T01:42:59.525Z,34.92
2019-02-25T01:48:04.616Z,34.70
2019-02-25T01:53:10.899Z,35.70
2019-02-25T01:58:16.017Z,39.03
2019-02-25T02:03:21.053Z,35.08
2019-02-25T02:08:26.140Z,34.58
2019-02-25T02:13:31.565Z,33.58
2019-02-25T02:18:47.018Z,32.53
2019-02-25T02:23:53.281Z,34.00
2019-02-25T02:28:58.661Z,30.10
2019-02-25T02:34:03.772Z,28.32
2019-02-25T02:39:08.762Z,32.63
2019-02-25T02:44:13.904Z,36.95
2019-02-25T02:49:18.910Z,36.80
2019-02-25T02:54:23.974Z,29.90
2019-02-25T02:59:29.027Z,29.70
2019-02-25T03:04:34.070Z,30.77
2019-02-25T03:09:39.644Z,32.00
2019-02-25T03:14:44.708Z,34.40
2019-02-25T03:19:49.780Z,33.37
2019-02-25T03:24:56.312Z,37.23
2019-02-25T03:30:01.358Z,41.53
2019-02-25T03:35:06.661Z,42.40
2019-02-25T03:40:13.556Z,46.93
2019-02-25T03:45:18.892Z,39.43
2019-02-25T03:50:23.912Z,39.90
2019-02-25T03:55:28.905Z,40.13
2019-02-25T04:00:33.929Z,37.07
2019-02-25T04:05:39.080Z,32.70
2019-02-25T04:10:44.096Z,38.33
2019-02-25T04:15:49.227Z,34.17
2019-02-25T04:20:54.483Z,31.97
2019-02-25T04:25:59.573Z,31.70
2019-02-25T04:31:04.557Z,30.33
2019-02-25T04:36:09.660Z,33.67
2019-02-25T04:41:14.732Z,37.97
2019-02-25T04:46:20.856Z,31.90
2019-02-25T04:51:26.038Z,27.43
2019-02-25T04:56:31.305Z,47.70
2019-02-25T05:01:36.405Z,30.20
2019-02-25T05:06:41.528Z,37.40
2019-02-25T05:11:46.516Z,43.97
2019-02-25T05:16:51.833Z,40.90
2019-02-25T05:21:57.125Z,41.20
2019-02-25T05:27:02.251Z,41.30
2019-02-25T05:32:07.705Z,38.73
2019-02-25T05:37:12.712Z,38.07
2019-02-25T05:42:18.121Z,42.00
2019-02-25T05:47:23.204Z,36.60
2019-02-25T05:52:28.222Z,34.53
2019-02-25T05:57:33.642Z,38.47
2019-02-25T06:02:38.748Z,38.30
2019-02-25T06:07:44.260Z,36.73
2019-02-25T06:12:49.665Z,41.00
2019-02-25T06:17:54.693Z,37.50
2019-02-25T06:22:59.836Z,36.07
2019-02-25T06:28:04.942Z,28.23
2019-02-25T06:33:10.493Z,28.93
2019-02-25T06:38:15.511Z,31.13
2019-02-25T06:43:20.530Z,32.47
2019-02-25T06:48:28.422Z,29.93
2019-02-25T06:53:33.526Z,30.27
2019-02-25T06:58:39.972Z,30.07
2019-02-25T07:03:46.756Z,25.83
2019-02-25T07:09:08.332Z,26.60
2019-02-25T07:14:33.768Z,34.93
2019-02-25T07:20:01.210Z,33.77
2019-02-25T07:25:37.369Z,29.33
2019-02-25T07:31:04.101Z,31.03
2019-02-25T07:36:26.583Z,29.50
2019-02-25T07:42:06.062Z,26.70
2019-02-25T07:47:16.572Z,24.93
2019-02-25T07:52:35.568Z,26.00
2019-02-25T07:58:11.594Z,26.13
2019-02-25T08:03:22.776Z,22.30
2019-02-25T08:08:49.660Z,21.17
2019-02-25T08:14:04.298Z,23.23
2019-02-25T08:19:34.916Z,24.73
2019-02-25T08:24:55.638Z,24.80
2019-02-25T08:30:19.644Z,29.97
2019-02-25T08:36:20.224Z,25.87
2019-02-25T08:41:33.052Z,22.27
2019-02-25T08:46:43.631Z,21.57
2019-02-25T08:51:48.760Z,21.73
2019-02-25T08:56:53.859Z,22.10
2019-02-25T09:01:58.901Z,20.33
2019-02-25T09:07:04.419Z,19.73
2019-02-25T09:12:09.908Z,20.07
2019-02-25T09:17:16.156Z,21.60
2019-02-25T09:22:21.314Z,21.20
2019-02-25T09:27:26.318Z,20.03
2019-02-25T10:43:29.622Z,20.43
2019-02-25T10:53:39.598Z,18.62
2019-02-25T10:58:44.774Z,17.98
2019-02-25T11:03:52.026Z,19.48
2019-02-25T11:09:04.602Z,19.45
2019-02-25T11:14:11.213Z,21.65
2019-02-25T11:19:16.777Z,20.68
2019-02-25T11:24:23.374Z,19.82
2019-02-25T11:29:28.624Z,22.87
2019-02-25T11:34:35.590Z,22.25
2019-02-25T11:39:40.544Z,22.48
2019-02-25T11:44:45.547Z,22.82
2019-02-25T11:49:50.943Z,20.70
2019-02-25T11:54:56.292Z,21.35
2019-02-25T12:00:01.710Z,21.12
2019-02-25T12:05:08.738Z,22.65
2019-02-25T12:10:13.934Z,21.95
2019-02-25T12:30:31.680Z,21.87
2019-02-25T13:11:06.936Z,20.50
2019-02-25T13:16:12.056Z,20.67
2019-02-25T13:21:17.556Z,20.62
2019-02-25T13:31:26.742Z,18.80
2019-02-25T13:36:31.794Z,19.12
2019-02-25T13:41:36.934Z,19.87
2019-02-25T13:46:42.047Z,19.67
2019-02-25T13:51:47.036Z,20.23
2019-02-25T13:56:56.416Z,19.62
2019-02-25T14:02:02.581Z,19.02
2019-02-25T14:07:08.124Z,20.23
2019-02-25T14:32:34.594Z,20.37
2019-02-25T14:37:39.521Z,20.40
2019-02-25T14:42:46.877Z,21.77
2019-02-25T14:47:55.389Z,22.40
2019-02-25T14:53:00.628Z,21.82
2019-02-25T15:03:20.066Z,18.12
2019-02-25T15:13:32.668Z,18.85
2019-02-25T16:14:29.799Z,20.32
2019-02-25T16:19:41.523Z,20.17
2019-02-25T16:24:43.601Z,22.87
2019-02-25T16:29:49.121Z,21.37
2019-02-25T16:34:55.608Z,22.37
2019-02-25T16:40:03.845Z,20.10
2019-02-25T16:45:14.158Z,19.17
2019-02-25T16:50:21.086Z,20.23
2019-02-25T16:55:27.800Z,22.93
2019-02-25T17:00:35.466Z,22.20
2019-02-25T17:05:42.087Z,21.27
2019-02-25T17:10:48.973Z,26.37
2019-02-25T17:15:54.198Z,24.10
2019-02-25T17:20:59.429Z,25.37
2019-02-25T17:26:05.980Z,24.40
2019-02-25T17:31:14.328Z,23.80
2019-02-25T17:36:19.374Z,25.92
2019-02-25T17:41:25.027Z,25.67
2019-02-25T17:46:32.540Z,27.33
2019-02-25T17:51:37.402Z,26.80
2019-02-25T17:56:43.124Z,26.87
2019-02-25T18:01:50.553Z,23.80
2019-02-25T18:06:55.798Z,25.05
2019-02-25T18:12:02.180Z,29.47
2019-02-25T18:17:08.317Z,28.47
2019-02-25T18:22:16.578Z,26.23
2019-02-25T18:27:20.875Z,26.63
2019-02-25T18:32:27.872Z,26.33
2019-02-25T18:37:35.285Z,27.45
2019-02-25T18:42:42.523Z,27.43
2019-02-25T18:47:47.686Z,30.88
2019-02-25T18:52:54.624Z,26.45
2019-02-25T18:58:00.292Z,27.82
2019-02-25T19:03:05.853Z,26.97
2019-02-25T19:08:15.072Z,27.22
2019-02-25T19:13:23.350Z,28.23
2019-02-25T19:18:29.474Z,29.45
2019-02-25T19:23:37.704Z,27.90
2019-02-25T19:28:45.965Z,27.00
2019-02-25T19:33:49.672Z,30.82
2019-02-25T19:38:55.824Z,30.40
2019-02-25T19:44:03.502Z,29.55
2019-02-25T19:49:09.330Z,30.33
2019-02-25T19:54:16.763Z,34.48
2019-02-25T19:59:24.077Z,29.82
2019-02-25T20:04:33.474Z,28.00
2019-02-25T20:09:40.322Z,30.15
2019-02-25T20:14:46.580Z,30.57
2019-02-25T20:19:50.393Z,32.15
2019-02-25T20:24:57.964Z,31.12
2019-02-25T20:30:05.355Z,28.90
2019-02-25T20:35:14.015Z,30.02
2019-02-25T20:40:21.830Z,33.18
2019-02-25T20:45:27.741Z,29.30
2019-02-25T20:50:34.142Z,30.02
2019-02-25T20:55:39.198Z,30.43
2019-02-25T21:00:46.607Z,27.90
2019-02-25T21:05:52.181Z,31.90
2019-02-25T21:10:59.166Z,30.97
2019-02-25T21:16:04.846Z,30.95
2019-02-25T21:21:13.980Z,31.75
2019-02-25T21:26:18.638Z,31.65
2019-02-25T21:31:24.511Z,33.48
2019-02-25T21:36:32.143Z,33.70
2019-02-25T21:41:39.115Z,33.55
2019-02-25T21:46:49.599Z,33.95
2019-02-25T21:51:52.087Z,32.35
2019-02-25T21:56:59.068Z,29.70
2019-02-25T22:02:04.523Z,34.43
2019-02-25T22:07:09.618Z,38.50
2019-02-25T22:12:14.814Z,34.93
2019-02-25T22:17:21.952Z,38.10
2019-02-25T22:22:28.853Z,35.75
2019-02-25T22:27:35.294Z,38.48
2019-02-25T22:32:41.243Z,35.03
2019-02-25T22:37:49.721Z,36.23
2019-02-25T22:42:54.959Z,34.25
2019-02-25T22:48:01.381Z,36.23
2019-02-25T22:53:08.903Z,36.33
2019-02-25T22:58:14.943Z,33.88
2019-02-25T23:03:22.812Z,33.67
2019-02-25T23:08:27.882Z,32.28
2019-02-25T23:13:32.981Z,32.05
2019-02-25T23:18:40.595Z,32.13
2019-02-25T23:23:45.620Z,32.40
2019-02-25T23:28:51.464Z,30.88
2019-02-25T23:33:57.679Z,35.57
2019-02-25T23:39:03.733Z,38.00
2019-02-25T23:44:12.632Z,35.30
2019-02-25T23:49:26.872Z,32.25
2019-02-25T23:54:26.060Z,32.85
2019-02-25T23:59:30.486Z,32.83
